sensor_id;sensor_type;location;lat;lon;timestamp;P1;durP1;ratioP1;P2;durP2;ratioP2
38264;SDS011;24062;47.480;8.768;2023-06-04T00:02:20;8.87;;;7.97;;
38264;SDS011;24062;47.480;8.768;2023-06-04T00:04:47;10.93;;;8.07;;
38264;SDS011;24062;47.480;8.768;2023-06-04T00:07:16;10.43;;;9.43;;
38264;SDS011;24062;47.480;8.768;2023-06-04T00:09:43;11.53;;;10.43;;
38264;SDS011;24062;47.480;8.768;2023-06-04T00:12:12;11.50;;;9.20;;
38264;SDS011;24062;47.480;8.768;2023-06-04T00:14:39;12.73;;;9.77;;
38264;SDS011;24062;47.480;8.768;2023-06-04T00:17:06;12.13;;;8.83;;
38264;SDS011;24062;47.480;8.768;2023-06-04T00:19:33;10.77;;;9.07;;
38264;SDS011;24062;47.480;8.768;2023-06-04T00:22:00;10.00;;;9.00;;
38264;SDS011;24062;47.480;8.768;2023-06-04T00:24:29;14.07;;;8.77;;
38264;SDS011;24062;47.480;8.768;2023-06-04T00:26:56;13.87;;;9.53;;
38264;SDS011;24062;47.480;8.768;2023-06-04T00:29:23;11.57;;;9.40;;
38264;SDS011;24062;47.480;8.768;2023-06-04T00:31:49;11.63;;;8.00;;
38264;SDS011;24062;47.480;8.768;2023-06-04T00:34:16;10.17;;;8.70;;
38264;SDS011;24062;47.480;8.768;2023-06-04T00:36:44;9.80;;;8.87;;
38264;SDS011;24062;47.480;8.768;2023-06-04T00:39:11;9.23;;;8.33;;
38264;SDS011;24062;47.480;8.768;2023-06-04T00:41:39;9.93;;;9.03;;
38264;SDS011;24062;47.480;8.768;2023-06-04T00:44:06;10.00;;;9.00;;
38264;SDS011;24062;47.480;8.768;2023-06-04T00:46:33;11.27;;;8.30;;
38264;SDS011;24062;47.480;8.768;2023-06-04T00:49:01;16.93;;;9.40;;
38264;SDS011;24062;47.480;8.768;2023-06-04T00:51:29;10.30;;;9.10;;
38264;SDS011;24062;47.480;8.768;2023-06-04T00:53:57;11.90;;;8.60;;
38264;SDS011;24062;47.480;8.768;2023-06-04T00:56:26;10.73;;;7.90;;
38264;SDS011;24062;47.480;8.768;2023-06-04T00:58:55;10.23;;;7.90;;
38264;SDS011;24062;47.480;8.768;2023-06-04T01:01:23;8.93;;;8.00;;
38264;SDS011;24062;47.480;8.768;2023-06-04T01:03:57;8.40;;;7.50;;
38264;SDS011;24062;47.480;8.768;2023-06-04T01:06:28;11.40;;;8.43;;
38264;SDS011;24062;47.480;8.768;2023-06-04T01:09:04;9.87;;;8.47;;
38264;SDS011;24062;47.480;8.768;2023-06-04T01:11:32;9.63;;;8.60;;
38264;SDS011;24062;47.480;8.768;2023-06-04T01:14:01;8.83;;;7.90;;
38264;SDS011;24062;47.480;8.768;2023-06-04T01:16:30;9.60;;;8.13;;
38264;SDS011;24062;47.480;8.768;2023-06-04T01:19:01;9.50;;;7.80;;
38264;SDS011;24062;47.480;8.768;2023-06-04T01:21:34;9.30;;;8.40;;
38264;SDS011;24062;47.480;8.768;2023-06-04T01:24:04;8.30;;;7.30;;
38264;SDS011;24062;47.480;8.768;2023-06-04T01:26:33;8.23;;;7.53;;
38264;SDS011;24062;47.480;8.768;2023-06-04T01:29:01;10.90;;;8.37;;
38264;SDS011;24062;47.480;8.768;2023-06-04T01:31:29;8.30;;;7.57;;
38264;SDS011;24062;47.480;8.768;2023-06-04T01:33:58;8.73;;;7.83;;
38264;SDS011;24062;47.480;8.768;2023-06-04T01:36:25;8.20;;;7.40;;
38264;SDS011;24062;47.480;8.768;2023-06-04T01:38:52;9.10;;;8.10;;
38264;SDS011;24062;47.480;8.768;2023-06-04T01:41:18;9.47;;;8.50;;
38264;SDS011;24062;47.480;8.768;2023-06-04T01:43:45;9.20;;;8.17;;
38264;SDS011;24062;47.480;8.768;2023-06-04T01:46:14;8.83;;;7.27;;
38264;SDS011;24062;47.480;8.768;2023-06-04T01:48:41;11.80;;;8.13;;
38264;SDS011;24062;47.480;8.768;2023-06-04T01:51:08;9.77;;;8.43;;
38264;SDS011;24062;47.480;8.768;2023-06-04T01:53:35;8.30;;;7.50;;
38264;SDS011;24062;47.480;8.768;2023-06-04T01:56:02;8.07;;;7.30;;
38264;SDS011;24062;47.480;8.768;2023-06-04T01:58:28;10.30;;;8.20;;
38264;SDS011;24062;47.480;8.768;2023-06-04T02:00:57;10.60;;;7.27;;
38264;SDS011;24062;47.480;8.768;2023-06-04T02:03:26;10.40;;;7.30;;
38264;SDS011;24062;47.480;8.768;2023-06-04T02:05:57;8.33;;;7.53;;
38264;SDS011;24062;47.480;8.768;2023-06-04T02:08:24;7.87;;;7.20;;
38264;SDS011;24062;47.480;8.768;2023-06-04T02:10:52;9.97;;;7.83;;
38264;SDS011;24062;47.480;8.768;2023-06-04T02:13:19;9.83;;;7.80;;
38264;SDS011;24062;47.480;8.768;2023-06-04T02:15:46;9.20;;;8.30;;
38264;SDS011;24062;47.480;8.768;2023-06-04T02:18:14;8.70;;;6.97;;
38264;SDS011;24062;47.480;8.768;2023-06-04T02:20:44;7.73;;;7.03;;
38264;SDS011;24062;47.480;8.768;2023-06-04T02:23:12;8.00;;;7.20;;
38264;SDS011;24062;47.480;8.768;2023-06-04T02:25:40;8.80;;;7.90;;
38264;SDS011;24062;47.480;8.768;2023-06-04T02:28:09;9.00;;;8.10;;
38264;SDS011;24062;47.480;8.768;2023-06-04T02:30:36;8.23;;;7.43;;
38264;SDS011;24062;47.480;8.768;2023-06-04T02:33:03;9.00;;;7.73;;
38264;SDS011;24062;47.480;8.768;2023-06-04T02:35:31;8.87;;;7.73;;
38264;SDS011;24062;47.480;8.768;2023-06-04T02:37:59;8.00;;;7.20;;
38264;SDS011;24062;47.480;8.768;2023-06-04T02:40:26;8.80;;;8.00;;
38264;SDS011;24062;47.480;8.768;2023-06-04T02:42:53;9.33;;;8.30;;
38264;SDS011;24062;47.480;8.768;2023-06-04T02:45:21;7.80;;;7.00;;
38264;SDS011;24062;47.480;8.768;2023-06-04T02:47:48;7.70;;;6.90;;
38264;SDS011;24062;47.480;8.768;2023-06-04T02:50:15;9.83;;;8.87;;
38264;SDS011;24062;47.480;8.768;2023-06-04T02:52:43;11.63;;;7.73;;
38264;SDS011;24062;47.480;8.768;2023-06-04T02:55:11;8.97;;;7.80;;
38264;SDS011;24062;47.480;8.768;2023-06-04T02:57:39;9.93;;;8.27;;
38264;SDS011;24062;47.480;8.768;2023-06-04T03:00:08;8.77;;;7.83;;
38264;SDS011;24062;47.480;8.768;2023-06-04T03:02:38;9.33;;;8.17;;
38264;SDS011;24062;47.480;8.768;2023-06-04T03:05:07;8.70;;;7.67;;
38264;SDS011;24062;47.480;8.768;2023-06-04T03:07:35;10.00;;;8.90;;
38264;SDS011;24062;47.480;8.768;2023-06-04T03:10:03;8.93;;;8.10;;
38264;SDS011;24062;47.480;8.768;2023-06-04T03:12:32;13.50;;;8.37;;
38264;SDS011;24062;47.480;8.768;2023-06-04T03:14:58;8.70;;;7.80;;
38264;SDS011;24062;47.480;8.768;2023-06-04T03:17:26;7.80;;;7.10;;
38264;SDS011;24062;47.480;8.768;2023-06-04T03:19:53;15.80;;;9.07;;
38264;SDS011;24062;47.480;8.768;2023-06-04T03:22:21;11.37;;;9.00;;
38264;SDS011;24062;47.480;8.768;2023-06-04T03:24:48;9.57;;;8.67;;
38264;SDS011;24062;47.480;8.768;2023-06-04T03:27:17;11.50;;;8.37;;
38264;SDS011;24062;47.480;8.768;2023-06-04T03:29:45;10.43;;;9.17;;
38264;SDS011;24062;47.480;8.768;2023-06-04T03:32:13;10.60;;;8.93;;
38264;SDS011;24062;47.480;8.768;2023-06-04T03:34:41;12.50;;;9.40;;
38264;SDS011;24062;47.480;8.768;2023-06-04T03:37:08;13.77;;;9.83;;
38264;SDS011;24062;47.480;8.768;2023-06-04T03:39:35;9.53;;;8.53;;
38264;SDS011;24062;47.480;8.768;2023-06-04T03:42:02;10.33;;;8.67;;
38264;SDS011;24062;47.480;8.768;2023-06-04T03:44:29;9.87;;;7.97;;
38264;SDS011;24062;47.480;8.768;2023-06-04T03:46:58;12.00;;;8.53;;
38264;SDS011;24062;47.480;8.768;2023-06-04T03:49:25;10.40;;;9.40;;
38264;SDS011;24062;47.480;8.768;2023-06-04T03:51:52;8.80;;;7.87;;
38264;SDS011;24062;47.480;8.768;2023-06-04T03:54:19;12.20;;;8.60;;
38264;SDS011;24062;47.480;8.768;2023-06-04T03:56:46;9.27;;;8.40;;
38264;SDS011;24062;47.480;8.768;2023-06-04T03:59:13;10.57;;;7.93;;
38264;SDS011;24062;47.480;8.768;2023-06-04T04:01:41;9.93;;;8.20;;
38264;SDS011;24062;47.480;8.768;2023-06-04T04:04:10;10.43;;;8.70;;
38264;SDS011;24062;47.480;8.768;2023-06-04T04:06:37;10.00;;;9.00;;
38264;SDS011;24062;47.480;8.768;2023-06-04T04:09:04;11.03;;;7.60;;
38264;SDS011;24062;47.480;8.768;2023-06-04T04:11:31;8.70;;;7.90;;
38264;SDS011;24062;47.480;8.768;2023-06-04T04:13:58;15.80;;;7.80;;
38264;SDS011;24062;47.480;8.768;2023-06-04T04:16:26;9.67;;;7.50;;
38264;SDS011;24062;47.480;8.768;2023-06-04T04:18:53;8.60;;;7.90;;
38264;SDS011;24062;47.480;8.768;2023-06-04T04:21:22;10.03;;;8.27;;
38264;SDS011;24062;47.480;8.768;2023-06-04T04:23:49;9.67;;;8.13;;
38264;SDS011;24062;47.480;8.768;2023-06-04T04:26:17;9.37;;;8.57;;
38264;SDS011;24062;47.480;8.768;2023-06-04T04:28:44;10.03;;;7.57;;
38264;SDS011;24062;47.480;8.768;2023-06-04T04:31:11;9.43;;;8.50;;
38264;SDS011;24062;47.480;8.768;2023-06-04T04:33:39;8.40;;;7.50;;
38264;SDS011;24062;47.480;8.768;2023-06-04T04:36:06;8.03;;;7.23;;
38264;SDS011;24062;47.480;8.768;2023-06-04T04:38:39;7.93;;;7.17;;
38264;SDS011;24062;47.480;8.768;2023-06-04T04:41:06;8.73;;;7.90;;
38264;SDS011;24062;47.480;8.768;2023-06-04T04:43:34;7.87;;;7.10;;
38264;SDS011;24062;47.480;8.768;2023-06-04T04:46:02;8.43;;;7.47;;
38264;SDS011;24062;47.480;8.768;2023-06-04T04:48:29;11.47;;;8.10;;
38264;SDS011;24062;47.480;8.768;2023-06-04T04:50:57;9.23;;;6.80;;
38264;SDS011;24062;47.480;8.768;2023-06-04T04:53:24;8.10;;;7.40;;
38264;SDS011;24062;47.480;8.768;2023-06-04T04:55:53;11.00;;;6.93;;
38264;SDS011;24062;47.480;8.768;2023-06-04T04:58:20;8.60;;;7.80;;
38264;SDS011;24062;47.480;8.768;2023-06-04T05:00:47;8.20;;;7.40;;
38264;SDS011;24062;47.480;8.768;2023-06-04T05:03:14;7.73;;;7.03;;
38264;SDS011;24062;47.480;8.768;2023-06-04T05:05:41;8.00;;;7.30;;
38264;SDS011;24062;47.480;8.768;2023-06-04T05:08:08;7.83;;;6.37;;
38264;SDS011;24062;47.480;8.768;2023-06-04T05:10:35;7.73;;;6.93;;
38264;SDS011;24062;47.480;8.768;2023-06-04T05:13:04;9.20;;;7.63;;
38264;SDS011;24062;47.480;8.768;2023-06-04T05:15:31;10.10;;;7.03;;
38264;SDS011;24062;47.480;8.768;2023-06-04T05:17:58;7.87;;;6.27;;
38264;SDS011;24062;47.480;8.768;2023-06-04T05:20:26;16.27;;;7.40;;
38264;SDS011;24062;47.480;8.768;2023-06-04T05:22:53;7.27;;;6.67;;
38264;SDS011;24062;47.480;8.768;2023-06-04T05:25:21;9.43;;;7.20;;
38264;SDS011;24062;47.480;8.768;2023-06-04T05:27:48;8.23;;;7.33;;
38264;SDS011;24062;47.480;8.768;2023-06-04T05:30:17;7.57;;;6.87;;
38264;SDS011;24062;47.480;8.768;2023-06-04T05:32:44;7.27;;;6.57;;
38264;SDS011;24062;47.480;8.768;2023-06-04T05:35:11;7.90;;;7.17;;
38264;SDS011;24062;47.480;8.768;2023-06-04T05:37:37;8.00;;;6.70;;
38264;SDS011;24062;47.480;8.768;2023-06-04T05:40:07;9.03;;;6.93;;
38264;SDS011;24062;47.480;8.768;2023-06-04T05:42:35;7.20;;;6.60;;
38264;SDS011;24062;47.480;8.768;2023-06-04T05:45:03;6.80;;;6.20;;
38264;SDS011;24062;47.480;8.768;2023-06-04T05:47:34;8.40;;;7.47;;
38264;SDS011;24062;47.480;8.768;2023-06-04T05:50:02;7.43;;;6.23;;
38264;SDS011;24062;47.480;8.768;2023-06-04T05:52:29;8.87;;;7.53;;
38264;SDS011;24062;47.480;8.768;2023-06-04T05:54:57;8.10;;;7.27;;
38264;SDS011;24062;47.480;8.768;2023-06-04T05:57:24;7.67;;;6.90;;
38264;SDS011;24062;47.480;8.768;2023-06-04T05:59:51;10.83;;;7.23;;
38264;SDS011;24062;47.480;8.768;2023-06-04T06:02:18;11.00;;;7.60;;
38264;SDS011;24062;47.480;8.768;2023-06-04T06:04:46;8.37;;;6.40;;
38264;SDS011;24062;47.480;8.768;2023-06-04T06:07:13;7.60;;;6.90;;
38264;SDS011;24062;47.480;8.768;2023-06-04T06:09:40;8.40;;;7.60;;
38264;SDS011;24062;47.480;8.768;2023-06-04T06:12:07;8.43;;;7.47;;
38264;SDS011;24062;47.480;8.768;2023-06-04T06:14:34;7.00;;;6.30;;
38264;SDS011;24062;47.480;8.768;2023-06-04T06:17:01;7.97;;;7.00;;
38264;SDS011;24062;47.480;8.768;2023-06-04T06:19:29;7.63;;;6.93;;
38264;SDS011;24062;47.480;8.768;2023-06-04T06:21:57;10.20;;;7.00;;
38264;SDS011;24062;47.480;8.768;2023-06-04T06:24:24;8.40;;;7.00;;
38264;SDS011;24062;47.480;8.768;2023-06-04T06:26:51;7.67;;;6.97;;
38264;SDS011;24062;47.480;8.768;2023-06-04T06:29:18;8.37;;;7.60;;
38264;SDS011;24062;47.480;8.768;2023-06-04T06:31:45;7.10;;;6.40;;
38264;SDS011;24062;47.480;8.768;2023-06-04T06:34:12;7.23;;;6.63;;
38264;SDS011;24062;47.480;8.768;2023-06-04T06:36:39;6.00;;;5.50;;
38264;SDS011;24062;47.480;8.768;2023-06-04T06:39:08;15.20;;;7.10;;
38264;SDS011;24062;47.480;8.768;2023-06-04T06:41:35;6.47;;;5.70;;
38264;SDS011;24062;47.480;8.768;2023-06-04T06:44:03;7.10;;;6.47;;
38264;SDS011;24062;47.480;8.768;2023-06-04T06:46:30;8.30;;;6.37;;
38264;SDS011;24062;47.480;8.768;2023-06-04T06:48:57;9.90;;;6.80;;
38264;SDS011;24062;47.480;8.768;2023-06-04T06:51:24;8.77;;;6.47;;
38264;SDS011;24062;47.480;8.768;2023-06-04T06:53:51;13.90;;;6.40;;
38264;SDS011;24062;47.480;8.768;2023-06-04T06:56:20;10.13;;;6.60;;
38264;SDS011;24062;47.480;8.768;2023-06-04T06:58:47;10.37;;;6.30;;
38264;SDS011;24062;47.480;8.768;2023-06-04T07:01:14;7.23;;;6.27;;
38264;SDS011;24062;47.480;8.768;2023-06-04T07:03:40;6.87;;;6.17;;
38264;SDS011;24062;47.480;8.768;2023-06-04T07:06:07;7.40;;;6.47;;
38264;SDS011;24062;47.480;8.768;2023-06-04T07:08:35;7.10;;;6.50;;
38264;SDS011;24062;47.480;8.768;2023-06-04T07:11:02;6.53;;;5.97;;
38264;SDS011;24062;47.480;8.768;2023-06-04T07:13:31;8.47;;;6.27;;
38264;SDS011;24062;47.480;8.768;2023-06-04T07:16:00;6.80;;;6.20;;
38264;SDS011;24062;47.480;8.768;2023-06-04T07:18:27;6.20;;;5.60;;
38264;SDS011;24062;47.480;8.768;2023-06-04T07:20:54;7.13;;;5.60;;
38264;SDS011;24062;47.480;8.768;2023-06-04T07:23:21;7.00;;;6.03;;
38264;SDS011;24062;47.480;8.768;2023-06-04T07:25:48;11.90;;;6.67;;
38264;SDS011;24062;47.480;8.768;2023-06-04T07:28:15;10.80;;;6.70;;
38264;SDS011;24062;47.480;8.768;2023-06-04T07:30:44;5.83;;;5.30;;
38264;SDS011;24062;47.480;8.768;2023-06-04T07:33:11;8.57;;;5.30;;
38264;SDS011;24062;47.480;8.768;2023-06-04T07:35:38;7.00;;;6.30;;
38264;SDS011;24062;47.480;8.768;2023-06-04T07:38:05;8.30;;;7.03;;
38264;SDS011;24062;47.480;8.768;2023-06-04T07:40:32;8.97;;;5.80;;
38264;SDS011;24062;47.480;8.768;2023-06-04T07:42:59;10.53;;;6.80;;
38264;SDS011;24062;47.480;8.768;2023-06-04T07:45:26;8.60;;;5.80;;
38264;SDS011;24062;47.480;8.768;2023-06-04T07:47:56;6.73;;;6.13;;
38264;SDS011;24062;47.480;8.768;2023-06-04T07:50:23;8.03;;;6.40;;
38264;SDS011;24062;47.480;8.768;2023-06-04T07:52:50;11.20;;;6.10;;
38264;SDS011;24062;47.480;8.768;2023-06-04T07:55:17;8.33;;;6.80;;
38264;SDS011;24062;47.480;8.768;2023-06-04T07:57:44;7.20;;;6.50;;
38264;SDS011;24062;47.480;8.768;2023-06-04T08:00:12;9.83;;;7.47;;
38264;SDS011;24062;47.480;8.768;2023-06-04T08:02:39;7.60;;;7.00;;
38264;SDS011;24062;47.480;8.768;2023-06-04T08:05:08;8.50;;;7.80;;
38264;SDS011;24062;47.480;8.768;2023-06-04T08:07:35;8.63;;;7.57;;
38264;SDS011;24062;47.480;8.768;2023-06-04T08:10:02;8.33;;;7.63;;
38264;SDS011;24062;47.480;8.768;2023-06-04T08:12:29;8.00;;;7.30;;
38264;SDS011;24062;47.480;8.768;2023-06-04T08:14:56;7.30;;;6.60;;
38264;SDS011;24062;47.480;8.768;2023-06-04T08:17:23;9.37;;;7.33;;
38264;SDS011;24062;47.480;8.768;2023-06-04T08:19:50;7.83;;;7.10;;
38264;SDS011;24062;47.480;8.768;2023-06-04T08:22:18;7.93;;;7.13;;
38264;SDS011;24062;47.480;8.768;2023-06-04T08:24:45;8.00;;;7.20;;
38264;SDS011;24062;47.480;8.768;2023-06-04T08:27:12;8.17;;;7.37;;
38264;SDS011;24062;47.480;8.768;2023-06-04T08:29:39;7.43;;;6.70;;
38264;SDS011;24062;47.480;8.768;2023-06-04T08:32:06;6.90;;;6.20;;
38264;SDS011;24062;47.480;8.768;2023-06-04T08:34:33;9.33;;;6.90;;
38264;SDS011;24062;47.480;8.768;2023-06-04T08:37:00;8.37;;;6.30;;
38264;SDS011;24062;47.480;8.768;2023-06-04T08:39:29;7.33;;;6.37;;
38264;SDS011;24062;47.480;8.768;2023-06-04T08:41:56;6.97;;;6.20;;
38264;SDS011;24062;47.480;8.768;2023-06-04T08:44:27;5.93;;;5.33;;
38264;SDS011;24062;47.480;8.768;2023-06-04T08:46:56;6.60;;;6.10;;
38264;SDS011;24062;47.480;8.768;2023-06-04T08:49:32;7.33;;;6.63;;
38264;SDS011;24062;47.480;8.768;2023-06-04T08:52:01;7.00;;;6.27;;
38264;SDS011;24062;47.480;8.768;2023-06-04T08:54:30;12.30;;;6.50;;
38264;SDS011;24062;47.480;8.768;2023-06-04T08:56:57;8.80;;;5.97;;
38264;SDS011;24062;47.480;8.768;2023-06-04T08:59:25;8.10;;;7.47;;
38264;SDS011;24062;47.480;8.768;2023-06-04T09:01:53;7.43;;;6.73;;
38264;SDS011;24062;47.480;8.768;2023-06-04T09:04:21;6.87;;;6.17;;
38264;SDS011;24062;47.480;8.768;2023-06-04T09:06:49;6.40;;;5.80;;
38264;SDS011;24062;47.480;8.768;2023-06-04T09:09:17;7.87;;;7.17;;
38264;SDS011;24062;47.480;8.768;2023-06-04T09:11:49;6.77;;;6.17;;
38264;SDS011;24062;47.480;8.768;2023-06-04T09:14:18;7.00;;;5.63;;
38264;SDS011;24062;47.480;8.768;2023-06-04T09:16:45;8.53;;;5.77;;
38264;SDS011;24062;47.480;8.768;2023-06-04T09:19:13;6.73;;;5.40;;
38264;SDS011;24062;47.480;8.768;2023-06-04T09:21:50;6.73;;;6.10;;
38264;SDS011;24062;47.480;8.768;2023-06-04T09:24:18;6.40;;;5.80;;
38264;SDS011;24062;47.480;8.768;2023-06-04T09:26:45;6.53;;;6.00;;
38264;SDS011;24062;47.480;8.768;2023-06-04T09:29:14;6.23;;;5.30;;
38264;SDS011;24062;47.480;8.768;2023-06-04T09:31:44;6.63;;;5.57;;
38264;SDS011;24062;47.480;8.768;2023-06-04T09:34:11;6.97;;;6.03;;
38264;SDS011;24062;47.480;8.768;2023-06-04T09:36:38;6.93;;;6.30;;
38264;SDS011;24062;47.480;8.768;2023-06-04T09:39:14;8.47;;;6.60;;
38264;SDS011;24062;47.480;8.768;2023-06-04T09:41:41;6.67;;;6.07;;
38264;SDS011;24062;47.480;8.768;2023-06-04T09:44:10;7.30;;;6.60;;
38264;SDS011;24062;47.480;8.768;2023-06-04T09:46:37;7.70;;;6.37;;
38264;SDS011;24062;47.480;8.768;2023-06-04T09:49:04;7.77;;;6.50;;
38264;SDS011;24062;47.480;8.768;2023-06-04T09:51:32;7.20;;;6.50;;
38264;SDS011;24062;47.480;8.768;2023-06-04T09:53:59;6.23;;;5.73;;
38264;SDS011;24062;47.480;8.768;2023-06-04T09:56:27;7.03;;;6.33;;
38264;SDS011;24062;47.480;8.768;2023-06-04T09:58:55;6.50;;;5.90;;
38264;SDS011;24062;47.480;8.768;2023-06-04T10:01:27;6.03;;;5.40;;
38264;SDS011;24062;47.480;8.768;2023-06-04T10:03:56;7.70;;;5.50;;
38264;SDS011;24062;47.480;8.768;2023-06-04T10:06:28;10.13;;;6.10;;
38264;SDS011;24062;47.480;8.768;2023-06-04T10:08:59;6.10;;;5.47;;
38264;SDS011;24062;47.480;8.768;2023-06-04T10:11:30;7.20;;;5.90;;
38264;SDS011;24062;47.480;8.768;2023-06-04T10:14:02;6.80;;;5.97;;
38264;SDS011;24062;47.480;8.768;2023-06-04T10:16:31;6.35;;;5.85;;
38264;SDS011;24062;47.480;8.768;2023-06-04T10:18:58;5.65;;;5.25;;
38264;SDS011;24062;47.480;8.768;2023-06-04T10:21:27;5.35;;;4.95;;
38264;SDS011;24062;47.480;8.768;2023-06-04T10:23:57;5.85;;;5.32;;
38264;SDS011;24062;47.480;8.768;2023-06-04T10:26:24;5.68;;;5.18;;
38264;SDS011;24062;47.480;8.768;2023-06-04T10:28:52;7.45;;;5.93;;
38264;SDS011;24062;47.480;8.768;2023-06-04T10:31:19;5.38;;;4.47;;
38264;SDS011;24062;47.480;8.768;2023-06-04T10:33:47;5.50;;;5.00;;
38264;SDS011;24062;47.480;8.768;2023-06-04T10:36:20;15.25;;;5.15;;
38264;SDS011;24062;47.480;8.768;2023-06-04T10:38:47;5.95;;;5.45;;
38264;SDS011;24062;47.480;8.768;2023-06-04T10:41:16;5.65;;;5.13;;
38264;SDS011;24062;47.480;8.768;2023-06-04T10:43:46;5.90;;;5.18;;
38264;SDS011;24062;47.480;8.768;2023-06-04T10:46:16;7.73;;;4.70;;
38264;SDS011;24062;47.480;8.768;2023-06-04T10:48:49;5.70;;;5.20;;
38264;SDS011;24062;47.480;8.768;2023-06-04T10:51:28;13.20;;;5.70;;
38264;SDS011;24062;47.480;8.768;2023-06-04T10:53:57;5.33;;;4.83;;
38264;SDS011;24062;47.480;8.768;2023-06-04T10:56:24;6.00;;;5.50;;
38264;SDS011;24062;47.480;8.768;2023-06-04T10:58:52;8.10;;;4.97;;
38264;SDS011;24062;47.480;8.768;2023-06-04T11:01:23;4.60;;;4.20;;
38264;SDS011;24062;47.480;8.768;2023-06-04T11:03:52;5.00;;;4.50;;
38264;SDS011;24062;47.480;8.768;2023-06-04T11:06:19;7.90;;;4.57;;
38264;SDS011;24062;47.480;8.768;2023-06-04T11:08:47;5.53;;;4.93;;
38264;SDS011;24062;47.480;8.768;2023-06-04T11:11:14;7.27;;;4.57;;
38264;SDS011;24062;47.480;8.768;2023-06-04T11:13:42;6.00;;;4.53;;
38264;SDS011;24062;47.480;8.768;2023-06-04T11:16:16;4.40;;;3.95;;
38264;SDS011;24062;47.480;8.768;2023-06-04T11:18:43;7.57;;;4.47;;
38264;SDS011;24062;47.480;8.768;2023-06-04T11:21:21;6.72;;;3.85;;
38264;SDS011;24062;47.480;8.768;2023-06-04T11:23:49;5.70;;;3.90;;
38264;SDS011;24062;47.480;8.768;2023-06-04T11:26:20;4.93;;;4.40;;
38264;SDS011;24062;47.480;8.768;2023-06-04T11:28:49;4.15;;;3.70;;
38264;SDS011;24062;47.480;8.768;2023-06-04T11:31:16;4.68;;;3.80;;
38264;SDS011;24062;47.480;8.768;2023-06-04T11:33:43;4.05;;;3.65;;
38264;SDS011;24062;47.480;8.768;2023-06-04T11:36:21;5.07;;;4.53;;
38264;SDS011;24062;47.480;8.768;2023-06-04T11:38:53;6.78;;;4.10;;
38264;SDS011;24062;47.480;8.768;2023-06-04T11:41:21;4.85;;;4.35;;
38264;SDS011;24062;47.480;8.768;2023-06-04T11:43:48;5.45;;;3.83;;
38264;SDS011;24062;47.480;8.768;2023-06-04T11:46:15;6.53;;;4.50;;
38264;SDS011;24062;47.480;8.768;2023-06-04T11:48:42;4.80;;;4.40;;
38264;SDS011;24062;47.480;8.768;2023-06-04T11:51:11;5.53;;;4.30;;
38264;SDS011;24062;47.480;8.768;2023-06-04T11:53:39;4.25;;;3.85;;
38264;SDS011;24062;47.480;8.768;2023-06-04T11:56:06;6.82;;;4.60;;
38264;SDS011;24062;47.480;8.768;2023-06-04T11:58:33;4.57;;;4.15;;
38264;SDS011;24062;47.480;8.768;2023-06-04T12:01:01;6.18;;;4.15;;
38264;SDS011;24062;47.480;8.768;2023-06-04T12:03:35;4.70;;;3.65;;
38264;SDS011;24062;47.480;8.768;2023-06-04T12:06:09;5.03;;;4.45;;
38264;SDS011;24062;47.480;8.768;2023-06-04T12:08:48;4.25;;;3.85;;
38264;SDS011;24062;47.480;8.768;2023-06-04T12:11:25;5.32;;;4.88;;
38264;SDS011;24062;47.480;8.768;2023-06-04T12:13:56;5.15;;;4.68;;
38264;SDS011;24062;47.480;8.768;2023-06-04T12:16:24;5.18;;;4.00;;
38264;SDS011;24062;47.480;8.768;2023-06-04T12:18:51;4.68;;;3.95;;
38264;SDS011;24062;47.480;8.768;2023-06-04T12:21:20;4.60;;;4.20;;
38264;SDS011;24062;47.480;8.768;2023-06-04T12:23:52;10.10;;;4.38;;
38264;SDS011;24062;47.480;8.768;2023-06-04T12:26:21;6.10;;;4.55;;
38264;SDS011;24062;47.480;8.768;2023-06-04T12:29:00;6.50;;;4.07;;
38264;SDS011;24062;47.480;8.768;2023-06-04T12:31:27;6.40;;;4.30;;
38264;SDS011;24062;47.480;8.768;2023-06-04T12:33:57;7.50;;;4.20;;
38264;SDS011;24062;47.480;8.768;2023-06-04T12:36:27;6.55;;;4.75;;
38264;SDS011;24062;47.480;8.768;2023-06-04T12:38:57;5.13;;;4.53;;
38264;SDS011;24062;47.480;8.768;2023-06-04T12:41:25;5.30;;;4.70;;
38264;SDS011;24062;47.480;8.768;2023-06-04T12:43:53;4.97;;;4.38;;
38264;SDS011;24062;47.480;8.768;2023-06-04T12:46:20;8.98;;;4.30;;
38264;SDS011;24062;47.480;8.768;2023-06-04T12:48:48;4.95;;;4.10;;
38264;SDS011;24062;47.480;8.768;2023-06-04T12:51:15;5.43;;;4.57;;
38264;SDS011;24062;47.480;8.768;2023-06-04T12:53:44;5.65;;;4.25;;
38264;SDS011;24062;47.480;8.768;2023-06-04T12:56:11;4.60;;;4.20;;
38264;SDS011;24062;47.480;8.768;2023-06-04T12:58:38;4.55;;;3.88;;
38264;SDS011;24062;47.480;8.768;2023-06-04T13:01:05;3.83;;;3.53;;
38264;SDS011;24062;47.480;8.768;2023-06-04T13:03:32;5.78;;;4.13;;
38264;SDS011;24062;47.480;8.768;2023-06-04T13:06:00;6.40;;;4.95;;
38264;SDS011;24062;47.480;8.768;2023-06-04T13:08:27;5.50;;;4.68;;
38264;SDS011;24062;47.480;8.768;2023-06-04T13:10:55;4.18;;;3.78;;
38264;SDS011;24062;47.480;8.768;2023-06-04T13:13:22;6.38;;;4.00;;
38264;SDS011;24062;47.480;8.768;2023-06-04T13:15:49;10.70;;;3.83;;
38264;SDS011;24062;47.480;8.768;2023-06-04T13:18:16;5.10;;;4.65;;
38264;SDS011;24062;47.480;8.768;2023-06-04T13:20:42;5.32;;;4.20;;
38264;SDS011;24062;47.480;8.768;2023-06-04T13:23:09;4.63;;;4.05;;
38264;SDS011;24062;47.480;8.768;2023-06-04T13:25:37;8.60;;;4.88;;
38264;SDS011;24062;47.480;8.768;2023-06-04T13:28:05;4.45;;;4.05;;
38264;SDS011;24062;47.480;8.768;2023-06-04T13:30:34;8.02;;;4.55;;
38264;SDS011;24062;47.480;8.768;2023-06-04T13:33:01;6.32;;;5.25;;
38264;SDS011;24062;47.480;8.768;2023-06-04T13:35:28;4.90;;;4.13;;
38264;SDS011;24062;47.480;8.768;2023-06-04T13:37:55;7.60;;;4.35;;
38264;SDS011;24062;47.480;8.768;2023-06-04T13:40:22;4.90;;;4.35;;
38264;SDS011;24062;47.480;8.768;2023-06-04T13:42:49;6.47;;;5.20;;
38264;SDS011;24062;47.480;8.768;2023-06-04T13:45:18;7.05;;;4.70;;
38264;SDS011;24062;47.480;8.768;2023-06-04T13:47:46;4.88;;;4.20;;
38264;SDS011;24062;47.480;8.768;2023-06-04T13:50:14;5.00;;;4.57;;
38264;SDS011;24062;47.480;8.768;2023-06-04T13:52:41;4.35;;;4.05;;
38264;SDS011;24062;47.480;8.768;2023-06-04T13:55:09;4.60;;;4.20;;
38264;SDS011;24062;47.480;8.768;2023-06-04T13:57:36;5.03;;;3.67;;
38264;SDS011;24062;47.480;8.768;2023-06-04T14:00:03;5.30;;;4.25;;
38264;SDS011;24062;47.480;8.768;2023-06-04T14:02:33;4.45;;;4.05;;
38264;SDS011;24062;47.480;8.768;2023-06-04T14:05:00;4.57;;;4.18;;
38264;SDS011;24062;47.480;8.768;2023-06-04T14:07:28;5.32;;;4.72;;
38264;SDS011;24062;47.480;8.768;2023-06-04T14:09:55;4.10;;;3.80;;
38264;SDS011;24062;47.480;8.768;2023-06-04T14:12:22;4.82;;;4.43;;
38264;SDS011;24062;47.480;8.768;2023-06-04T14:14:49;3.95;;;3.55;;
38264;SDS011;24062;47.480;8.768;2023-06-04T14:17:16;4.07;;;3.78;;
38264;SDS011;24062;47.480;8.768;2023-06-04T14:19:45;4.43;;;4.07;;
38264;SDS011;24062;47.480;8.768;2023-06-04T14:22:12;6.22;;;3.65;;
38264;SDS011;24062;47.480;8.768;2023-06-04T14:24:40;4.03;;;3.72;;
38264;SDS011;24062;47.480;8.768;2023-06-04T14:27:07;3.80;;;3.50;;
38264;SDS011;24062;47.480;8.768;2023-06-04T14:29:34;4.07;;;3.67;;
38264;SDS011;24062;47.480;8.768;2023-06-04T14:32:02;4.28;;;3.88;;
38264;SDS011;24062;47.480;8.768;2023-06-04T14:34:29;4.15;;;3.75;;
38264;SDS011;24062;47.480;8.768;2023-06-04T14:36:58;4.13;;;3.63;;
38264;SDS011;24062;47.480;8.768;2023-06-04T14:39:25;4.72;;;4.20;;
38264;SDS011;24062;47.480;8.768;2023-06-04T14:41:53;4.05;;;3.67;;
38264;SDS011;24062;47.480;8.768;2023-06-04T14:44:20;4.78;;;3.60;;
38264;SDS011;24062;47.480;8.768;2023-06-04T14:46:48;4.18;;;3.78;;
38264;SDS011;24062;47.480;8.768;2023-06-04T14:49:16;4.10;;;3.80;;
38264;SDS011;24062;47.480;8.768;2023-06-04T14:51:42;4.43;;;3.95;;